Time;durP1;ratioP1;P1;durP2;ratioP2;P2;SDS_P1;SDS_P2;PMS_P1;PMS_P2;Temp;Humidity;BMP_temperature;BMP_pressure;BME280_temperature;BME280_humidity;BME280_pressure;Samples;Min_cycle;Max_cycle;Signal;HPM_P1;HPM_P2
2022/03/27 00:00:09;;;;;;;22.60;15.50;;;;;;;11.35;57.66;100480.03;4995427;28;20201;-83
2022/03/27 00:02:38;;;;;;;21.48;14.00;;;;;;;11.23;58.22;100477.91;4984329;28;20238;-82
2022/03/27 00:05:06;;;;;;;28.85;16.20;;;;;;;11.05;59.17;100483.19;4991358;28;20198;-82
2022/03/27 00:07:32;;;;;;;24.05;14.85;;;;;;;11.09;59.09;100491.16;4991205;28;20200;-81
2022/03/27 00:09:59;;;;;;;25.92;15.38;;;;;;;10.89;60.04;100484.84;4998091;28;20195;-81
2022/03/27 00:12:25;;;;;;;24.35;16.02;;;;;;;10.87;60.26;100489.44;4998954;28;20254;-82
2022/03/27 00:14:52;;;;;;;30.48;16.25;;;;;;;10.75;61.01;100482.78;4998415;28;20184;-82
2022/03/27 00:17:19;;;;;;;26.58;16.15;;;;;;;10.55;62.06;100483.66;4987190;28;20203;-82
2022/03/27 00:19:47;;;;;;;25.10;17.10;;;;;;;10.48;62.82;100481.31;4985657;28;20207;-81
2022/03/27 00:22:14;;;;;;;24.77;17.10;;;;;;;10.55;62.47;100480.09;4990644;28;20211;-82
2022/03/27 00:24:40;;;;;;;24.30;17.38;;;;;;;10.51;62.81;100476.66;4987692;28;20190;-81
2022/03/27 00:27:07;;;;;;;26.75;17.33;;;;;;;10.46;63.25;100478.69;4984043;28;20255;-81
2022/03/27 00:29:34;;;;;;;24.65;16.40;;;;;;;10.26;64.31;100468.72;4978338;28;20193;-81
2022/03/27 00:32:01;;;;;;;27.38;18.15;;;;;;;9.98;65.95;100474.44;4981962;28;20214;-82
2022/03/27 00:34:27;;;;;;;26.27;16.45;;;;;;;10.12;65.39;100481.91;4995372;28;20195;-82
2022/03/27 00:36:55;;;;;;;21.42;15.52;;;;;;;10.06;65.85;100474.97;4992037;28;20198;-82
2022/03/27 00:39:22;;;;;;;27.40;17.70;;;;;;;9.94;66.38;100481.72;4984443;28;20192;-81
2022/03/27 00:41:49;;;;;;;34.00;20.27;;;;;;;10.06;66.29;100483.03;4978482;28;20242;-81
2022/03/27 00:44:16;;;;;;;24.98;17.38;;;;;;;10.06;66.24;100479.47;4983986;28;20207;-81
2022/03/27 00:46:42;;;;;;;29.35;16.77;;;;;;;9.90;67.13;100479.22;4988273;28;20646;-82
2022/03/27 00:49:09;;;;;;;22.17;14.90;;;;;;;10.02;66.58;100482.31;4982225;28;20202;-82
2022/03/27 00:51:37;;;;;;;29.10;16.13;;;;;;;9.98;66.37;100482.50;4987017;28;20199;-81
2022/03/27 00:54:05;;;;;;;21.02;14.90;;;;;;;9.88;67.19;100482.00;4981742;28;20330;-83
2022/03/27 00:56:32;;;;;;;23.23;14.82;;;;;;;9.86;67.39;100473.13;4984377;28;20184;-82
2022/03/27 00:58:58;;;;;;;24.52;16.08;;;;;;;9.85;67.66;100483.94;4983933;28;20204;-82
2022/03/27 01:01:34;;;;;;;23.52;15.95;;;;;;;9.72;68.50;100483.56;4984642;28;20322;-82
2022/03/27 01:04:01;;;;;;;24.65;16.35;;;;;;;9.66;68.61;100473.94;4994167;28;20214;-82
2022/03/27 01:06:34;;;;;;;19.65;15.40;;;;;;;9.49;69.99;100473.72;4994532;28;20306;-82
2022/03/27 01:11:49;;;;;;;21.60;14.63;;;;;;;9.49;70.25;100481.78;4987506;28;20201;-83
2022/03/27 01:14:22;;;;;;;27.08;16.00;;;;;;;9.61;69.59;100470.56;4986479;28;20285;-83
2022/03/27 01:16:58;;;;;;;26.50;14.90;;;;;;;9.30;71.19;100477.16;4982771;28;20712;-82
2022/03/27 01:19:26;;;;;;;25.63;15.63;;;;;;;9.26;71.72;100477.31;4977863;28;20201;-82
2022/03/27 01:21:55;;;;;;;25.98;17.17;;;;;;;9.18;72.29;100477.63;4981977;28;20232;-82
2022/03/27 01:24:21;;;;;;;23.90;15.38;;;;;;;8.94;74.00;100463.31;4993210;28;20194;-82
2022/03/27 01:26:48;;;;;;;23.80;14.98;;;;;;;8.98;73.89;100462.25;4988426;28;20192;-82
2022/03/27 01:29:15;;;;;;;23.60;15.70;;;;;;;8.98;73.94;100460.44;4979342;28;20204;-82
2022/03/27 01:31:41;;;;;;;29.02;16.70;;;;;;;8.93;74.55;100467.81;4990697;28;20198;-82
2022/03/27 01:34:08;;;;;;;26.90;16.30;;;;;;;9.06;73.83;100456.59;4983674;28;20202;-82
2022/03/27 01:36:36;;;;;;;25.05;17.02;;;;;;;8.97;74.49;100453.31;4983416;28;20193;-81
2022/03/27 01:39:06;;;;;;;24.90;16.90;;;;;;;8.83;75.52;100447.59;4991226;28;20602;-81
2022/03/27 01:41:33;;;;;;;29.98;17.35;;;;;;;8.82;75.87;100451.22;4986622;28;20535;-81
2022/03/27 01:44:00;;;;;;;27.02;17.05;;;;;;;8.74;75.94;100446.13;4984361;28;20565;-82
2022/03/27 01:46:32;;;;;;;29.75;17.50;;;;;;;8.78;76.17;100457.63;4975946;28;20585;-82
2022/03/27 01:49:00;;;;;;;28.90;17.30;;;;;;;8.82;76.04;100451.22;4975839;28;20189;-82
2022/03/27 01:51:27;;;;;;;29.70;21.73;;;;;;;8.83;76.10;100452.97;4986020;28;20204;-82
2022/03/27 01:53:54;;;;;;;26.95;16.65;;;;;;;8.82;75.98;100447.63;4987483;28;20540;-82
2022/03/27 01:56:22;;;;;;;24.90;16.98;;;;;;;9.00;74.76;100451.44;4982951;28;20205;-80
2022/03/27 01:58:49;;;;;;;24.73;16.52;;;;;;;8.83;76.02;100447.59;4975884;28;20187;-81
2022/03/27 02:01:16;;;;;;;26.52;15.80;;;;;;;8.72;76.76;100442.59;4989490;28;20659;-81
2022/03/27 02:03:43;;;;;;;22.50;16.50;;;;;;;8.59;77.58;100448.50;4983582;28;20213;-81
2022/03/27 02:06:10;;;;;;;28.42;15.98;;;;;;;8.48;78.59;100447.09;4984675;28;20539;-82
2022/03/27 02:08:37;;;;;;;26.70;16.52;;;;;;;8.43;78.92;100446.34;4988790;28;20198;-80
2022/03/27 02:11:03;;;;;;;25.58;15.43;;;;;;;8.55;78.12;100443.25;4983671;28;20201;-81
2022/03/27 02:13:32;;;;;;;20.38;13.80;;;;;;;8.54;78.45;100446.84;4989254;28;20188;-81
2022/03/27 02:15:59;;;;;;;24.20;15.88;;;;;;;8.49;79.29;100446.13;4983081;28;20282;-81
2022/03/27 02:18:27;;;;;;;26.52;15.55;;;;;;;8.51;79.46;100443.41;4975147;28;20197;-81
2022/03/27 02:20:54;;;;;;;28.77;16.02;;;;;;;8.27;80.92;100450.47;4982812;28;20196;-81
2022/03/27 02:23:21;;;;;;;21.08;14.73;;;;;;;8.34;80.67;100447.53;4986187;28;20258;-82
2022/03/27 02:25:47;;;;;;;21.13;14.52;;;;;;;8.32;80.90;100443.13;4978900;28;20544;-81
2022/03/27 02:28:14;;;;;;;22.88;15.25;;;;;;;8.35;80.29;100451.97;4990717;28;20202;-82
2022/03/27 02:30:42;;;;;;;22.60;15.75;;;;;;;8.40;80.58;100450.94;4982792;28;20557;-82
2022/03/27 02:33:09;;;;;;;24.02;15.60;;;;;;;8.45;79.82;100449.00;4988942;28;20191;-82
2022/03/27 02:35:36;;;;;;;28.17;15.90;;;;;;;8.38;80.41;100452.78;4989504;28;20195;-82
2022/03/27 02:38:04;;;;;;;25.70;15.27;;;;;;;8.31;80.84;100453.00;4985794;28;20203;-81
2022/03/27 02:40:31;;;;;;;35.33;17.30;;;;;;;8.30;81.37;100450.41;4980227;28;20216;-81
2022/03/27 02:42:59;;;;;;;22.90;15.48;;;;;;;8.30;81.01;100456.63;4976440;28;20215;-81
2022/03/27 02:45:26;;;;;;;25.15;15.25;;;;;;;8.24;81.51;100458.66;4981703;28;20195;-81
2022/03/27 02:47:54;;;;;;;25.60;14.90;;;;;;;8.39;80.55;100447.38;4984610;28;20191;-82
2022/03/27 02:50:20;;;;;;;22.52;15.18;;;;;;;8.47;79.77;100458.72;4980848;28;20199;-81
2022/03/27 02:52:47;;;;;;;20.73;15.45;;;;;;;8.47;79.87;100456.06;4977991;28;20196;-81
2022/03/27 02:55:14;;;;;;;24.08;14.85;;;;;;;8.19;81.78;100460.63;4986217;28;20200;-82
2022/03/27 02:57:41;;;;;;;22.25;15.70;;;;;;;8.12;82.47;100451.91;4985687;28;20587;-82
2022/03/27 03:00:10;;;;;;;25.25;14.85;;;;;;;8.15;81.72;100452.66;4993226;28;20195;-81
2022/03/27 03:02:37;;;;;;;22.85;14.63;;;;;;;8.06;82.59;100458.34;4981618;28;20227;-81
2022/03/27 03:05:07;;;;;;;19.73;14.57;;;;;;;7.89;84.01;100455.34;4976386;28;20222;-81
2022/03/27 03:07:34;;;;;;;24.40;13.98;;;;;;;7.92;84.27;100460.63;4986266;28;20195;-82
2022/03/27 03:10:02;;;;;;;20.15;14.30;;;;;;;7.94;84.34;100453.41;4987027;28;20202;-81
2022/03/27 03:12:29;;;;;;;26.38;14.18;;;;;;;7.65;86.27;100449.88;4991338;28;20506;-81
2022/03/27 03:14:56;;;;;;;23.55;14.88;;;;;;;7.57;87.38;100443.88;4991191;28;20199;-81
2022/03/27 03:17:23;;;;;;;23.55;15.00;;;;;;;7.70;86.96;100455.09;4987860;28;20519;-81
2022/03/27 03:19:50;;;;;;;22.80;14.43;;;;;;;7.58;87.81;100447.47;4984752;28;20200;-81
2022/03/27 03:22:19;;;;;;;23.67;14.75;;;;;;;7.84;86.39;100457.31;4985770;28;20276;-81
2022/03/27 03:24:46;;;;;;;18.83;13.52;;;;;;;7.75;86.69;100453.13;4985034;28;20219;-81
2022/03/27 03:27:13;;;;;;;25.98;16.52;;;;;;;7.58;87.82;100458.19;4983441;28;20199;-81
2022/03/27 03:29:40;;;;;;;19.95;14.57;;;;;;;7.38;89.73;100453.44;4977902;28;20198;-81
2022/03/27 03:32:07;;;;;;;22.30;14.07;;;;;;;7.48;89.44;100445.06;4985527;28;20295;-81
2022/03/27 03:34:34;;;;;;;22.42;15.60;;;;;;;7.43;88.98;100452.38;4985045;28;20195;-81
2022/03/27 03:37:01;;;;;;;21.48;16.25;;;;;;;7.43;89.52;100441.63;4984203;28;20279;-81
2022/03/27 03:39:28;;;;;;;23.63;14.35;;;;;;;7.54;88.71;100449.34;4985471;28;20199;-81
2022/03/27 03:41:55;;;;;;;23.45;14.73;;;;;;;7.57;88.96;100443.88;4986685;28;20192;-81
2022/03/27 03:44:22;;;;;;;21.45;14.32;;;;;;;7.59;88.89;100447.38;4982036;28;20230;-82
2022/03/27 03:46:48;;;;;;;24.75;15.18;;;;;;;7.35;90.21;100453.53;4981861;28;20196;-82
2022/03/27 03:49:16;;;;;;;24.27;15.98;;;;;;;7.48;89.68;100449.53;4981038;28;20204;-82
2022/03/27 03:51:42;;;;;;;24.45;15.88;;;;;;;7.41;90.09;100443.50;4985227;28;20204;-82
2022/03/27 03:54:09;;;;;;;25.73;14.43;;;;;;;7.47;90.21;100445.13;4991443;28;20746;-82
2022/03/27 03:56:38;;;;;;;26.02;15.25;;;;;;;7.35;90.50;100453.53;4991890;28;20195;-82
2022/03/27 03:59:05;;;;;;;25.02;15.55;;;;;;;7.23;92.03;100439.59;4978162;28;20203;-82
2022/03/27 04:01:32;;;;;;;22.75;15.15;;;;;;;7.47;90.83;100442.44;4993308;28;20232;-82
2022/03/27 04:03:58;;;;;;;22.95;14.15;;;;;;;7.59;89.58;100441.16;4991668;28;20223;-82
2022/03/27 04:06:26;;;;;;;24.98;15.10;;;;;;;7.52;89.43;100438.66;4995684;28;20283;-82
2022/03/27 04:08:53;;;;;;;20.38;13.55;;;;;;;7.50;90.06;100439.66;4985042;28;20188;-82
2022/03/27 04:11:19;;;;;;;22.67;14.32;;;;;;;7.59;89.51;100442.03;4984995;28;20209;-81
2022/03/27 04:13:47;;;;;;;20.35;13.93;;;;;;;7.42;90.58;100433.69;4977801;28;20192;-82
2022/03/27 04:16:14;;;;;;;19.45;13.70;;;;;;;7.36;91.35;100440.09;4981608;28;20651;-81
2022/03/27 04:18:41;;;;;;;22.08;14.30;;;;;;;7.49;91.06;100440.59;4996459;28;20222;-81
2022/03/27 04:21:09;;;;;;;20.10;14.60;;;;;;;7.64;89.53;100434.75;4997062;28;20192;-82
2022/03/27 04:23:37;;;;;;;22.90;14.20;;;;;;;7.45;90.63;100430.88;4995761;28;20223;-82
2022/03/27 04:26:04;;;;;;;24.77;14.18;;;;;;;7.56;90.24;100435.91;4996364;28;20700;-82
2022/03/27 04:28:31;;;;;;;21.25;13.90;;;;;;;7.48;90.49;100433.44;4987548;28;20276;-81
2022/03/27 04:30:59;;;;;;;19.67;13.63;;;;;;;7.46;90.83;100430.84;4984404;28;20535;-81
2022/03/27 04:33:26;;;;;;;21.58;14.55;;;;;;;7.46;91.17;100436.22;4982567;28;20194;-81
2022/03/27 04:35:52;;;;;;;23.05;14.90;;;;;;;7.40;91.00;100438.19;4996858;28;20536;-82
2022/03/27 04:38:19;;;;;;;17.55;12.52;;;;;;;7.55;92.74;100439.50;4988530;28;20199;-82
2022/03/27 04:40:46;;;;;;;21.70;12.93;;;;;;;7.55;91.38;100440.38;4988101;28;20618;-82
2022/03/27 04:43:13;;;;;;;20.42;14.40;;;;;;;7.52;91.14;100441.34;4987897;28;20251;-82
2022/03/27 04:45:39;;;;;;;21.08;13.85;;;;;;;7.37;92.31;100441.84;4980603;28;20187;-82
2022/03/27 04:48:08;;;;;;;21.67;15.07;;;;;;;7.38;92.69;100445.41;4980981;28;20204;-81
2022/03/27 04:50:34;;;;;;;22.52;13.68;;;;;;;7.33;93.14;100456.28;4992668;28;20192;-81
2022/03/27 04:53:01;;;;;;;24.48;14.93;;;;;;;7.23;94.33;100446.75;4984773;28;20221;-83
2022/03/27 04:55:27;;;;;;;22.65;14.82;;;;;;;7.20;94.72;100447.72;4986923;28;20200;-82
2022/03/27 04:57:54;;;;;;;19.20;14.65;;;;;;;7.10;95.79;100449.81;4981846;28;20279;-81
2022/03/27 05:00:21;;;;;;;19.60;14.05;;;;;;;7.08;96.23;100456.16;4986502;28;20601;-82
2022/03/27 05:02:47;;;;;;;22.10;14.25;;;;;;;7.05;96.71;100450.88;4984912;28;20192;-82
2022/03/27 05:05:17;;;;;;;19.75;13.57;;;;;;;7.07;96.83;100449.88;4987392;28;20246;-81
2022/03/27 05:07:44;;;;;;;19.70;15.00;;;;;;;7.12;96.33;100452.44;4990370;28;20275;-81
2022/03/27 05:10:13;;;;;;;25.05;15.32;;;;;;;7.09;97.27;100453.41;4985060;28;20550;-83
2022/03/27 05:12:40;;;;;;;21.70;14.13;;;;;;;7.13;97.03;100450.66;4987893;28;20702;-81
2022/03/27 05:15:09;;;;;;;21.65;15.43;;;;;;;7.15;96.57;100446.13;4979710;28;20185;-81
2022/03/27 05:17:46;;;;;;;22.48;15.27;;;;;;;7.12;96.54;100449.75;4983937;28;20196;-82
2022/03/27 05:20:13;;;;;;;19.77;13.18;;;;;;;7.42;96.71;100455.13;4992533;28;20195;-81
2022/03/27 05:22:41;;;;;;;20.08;13.18;;;;;;;7.46;95.58;100446.03;4982764;28;20275;-81
2022/03/27 05:25:08;;;;;;;31.92;16.88;;;;;;;7.65;93.66;100449.88;4991518;28;20215;-81
2022/03/27 05:27:35;;;;;;;21.60;13.70;;;;;;;7.65;93.38;100457.91;4976411;28;20548;-82
2022/03/27 05:30:02;;;;;;;22.58;14.05;;;;;;;7.43;94.77;100452.38;4990324;28;20187;-81
2022/03/27 05:32:28;;;;;;;23.67;15.15;;;;;;;7.67;93.73;100452.53;4987025;28;20198;-81
2022/03/27 05:34:55;;;;;;;29.35;17.10;;;;;;;7.57;94.21;100453.72;4987306;28;20192;-81
2022/03/27 05:37:22;;;;;;;26.73;17.70;;;;;;;7.71;93.26;100451.47;4986762;28;20246;-81
2022/03/27 05:39:49;;;;;;;24.63;15.43;;;;;;;7.85;92.38;100461.75;4987123;28;20674;-81
2022/03/27 05:42:16;;;;;;;30.48;18.02;;;;;;;7.83;92.68;100452.88;4991217;28;20195;-82
2022/03/27 05:44:43;;;;;;;18.38;13.40;;;;;;;7.78;95.36;100458.41;4989976;28;20207;-82
2022/03/27 05:47:10;;;;;;;40.63;25.63;;;;;;;7.97;94.20;100458.66;4984189;28;20229;-83
2022/03/27 05:49:36;;;;;;;20.45;14.07;;;;;;;7.94;93.00;100462.31;4988992;28;20200;-81
2022/03/27 05:52:04;;;;;;;20.42;13.02;;;;;;;8.13;93.53;100459.00;4984078;28;20285;-82
2022/03/27 05:54:31;;;;;;;28.35;18.27;;;;;;;8.24;93.02;100464.00;4983573;28;20206;-82
2022/03/27 05:56:59;;;;;;;30.65;18.02;;;;;;;8.32;92.27;100472.66;4984051;28;20185;-82
2022/03/27 05:59:25;;;;;;;70.80;39.58;;;;;;;8.49;91.02;100470.28;4982128;28;20203;-82
2022/03/27 06:01:52;;;;;;;20.40;15.75;;;;;;;8.39;90.57;100474.22;4978544;28;20234;-83
2022/03/27 06:04:19;;;;;;;21.27;13.07;;;;;;;8.34;91.85;100476.16;4992556;28;20218;-82
2022/03/27 06:06:45;;;;;;;26.80;16.50;;;;;;;8.48;90.78;100479.28;4993614;28;20246;-84
2022/03/27 06:09:12;;;;;;;19.90;13.73;;;;;;;8.62;90.53;100477.94;4993746;28;20187;-83
2022/03/27 06:11:39;;;;;;;30.70;19.45;;;;;;;8.78;89.15;100484.47;4983136;28;20216;-85
2022/03/27 06:14:07;;;;;;;25.80;16.80;;;;;;;8.92;88.49;100490.22;4988848;28;20209;-84
2022/03/27 06:16:33;;;;;;;28.20;18.02;;;;;;;9.01;87.98;100485.44;4982396;28;20188;-81
2022/03/27 06:19:00;;;;;;;20.20;13.90;;;;;;;8.95;88.55;100489.22;4983030;28;20196;-82
2022/03/27 06:21:26;;;;;;;18.17;12.85;;;;;;;9.28;85.83;100489.75;4981502;28;20604;-85
2022/03/27 06:23:53;;;;;;;19.13;13.52;;;;;;;9.25;85.95;100492.56;4990710;28;20210;-84
2022/03/27 06:26:21;;;;;;;20.80;13.70;;;;;;;9.28;85.86;100491.56;4990995;28;20193;-82
2022/03/27 06:28:47;;;;;;;19.45;13.98;;;;;;;9.21;86.02;100501.69;4986061;28;20227;-84
2022/03/27 06:31:15;;;;;;;41.13;25.58;;;;;;;9.34;85.54;100500.28;4989311;28;20211;-82
2022/03/27 06:33:42;;;;;;;21.58;13.38;;;;;;;9.43;85.17;100500.84;4984355;28;20194;-84
2022/03/27 06:36:09;;;;;;;18.23;13.45;;;;;;;9.53;84.27;100495.06;4977654;28;20552;-83
2022/03/27 06:38:35;;;;;;;16.20;12.70;;;;;;;9.66;83.53;100490.06;4986630;28;20211;-81
2022/03/27 06:41:03;;;;;;;27.10;15.77;;;;;;;9.75;82.48;100492.38;4983112;28;20190;-82
2022/03/27 06:43:30;;;;;;;23.67;14.68;;;;;;;9.83;82.23;100492.06;4988619;28;20223;-83
2022/03/27 06:45:56;;;;;;;21.45;14.02;;;;;;;9.81;82.76;100492.16;4982832;28;20258;-82
2022/03/27 06:48:25;;;;;;;22.58;14.23;;;;;;;9.90;82.23;100490.00;4981961;28;20626;-84
2022/03/27 06:50:51;;;;;;;22.85;15.80;;;;;;;9.86;82.16;100491.06;4983679;28;20627;-84
2022/03/27 06:53:20;;;;;;;21.35;14.93;;;;;;;9.85;82.77;100498.25;4982602;28;20226;-85
2022/03/27 06:55:47;;;;;;;23.00;15.20;;;;;;;10.01;81.60;100501.19;4982254;28;20193;-84
2022/03/27 06:58:14;;;;;;;20.17;13.80;;;;;;;10.09;81.31;100498.19;4980936;28;20197;-84
2022/03/27 07:03:27;;;;;;;18.63;13.32;;;;;;;10.20;80.60;100502.19;4981197;28;20287;-82
2022/03/27 07:05:54;;;;;;;27.05;16.38;;;;;;;10.34;79.57;100506.16;4990665;28;20277;-82
2022/03/27 07:08:21;;;;;;;22.77;13.38;;;;;;;10.52;78.47;100501.78;4986465;28;20198;-82
2022/03/27 07:10:49;;;;;;;23.15;14.18;;;;;;;10.63;78.09;100507.59;4981929;28;20665;-81
2022/03/27 07:13:18;;;;;;;21.42;13.50;;;;;;;10.64;77.89;100503.94;4979664;28;20568;-83
2022/03/27 07:15:46;;;;;;;22.25;14.90;;;;;;;10.78;76.98;100511.41;4977290;28;20619;-82
2022/03/27 07:18:14;;;;;;;26.13;15.43;;;;;;;10.70;77.79;100513.56;4985041;28;20213;-82
2022/03/27 07:20:42;;;;;;;24.85;15.95;;;;;;;10.73;77.90;100508.91;4981538;28;20748;-82
2022/03/27 07:23:10;;;;;;;24.95;15.32;;;;;;;10.85;77.28;100510.16;4979805;28;20208;-81
2022/03/27 07:25:39;;;;;;;21.80;15.38;;;;;;;11.01;76.13;100513.06;4976620;28;20538;-82
2022/03/27 07:28:08;;;;;;;26.45;16.63;;;;;;;11.09;75.79;100516.28;4989746;28;20199;-81
2022/03/27 07:30:35;;;;;;;21.60;14.20;;;;;;;11.44;73.71;100502.97;4986506;28;20196;-82
2022/03/27 07:33:02;;;;;;;20.85;13.60;;;;;;;11.32;74.06;100515.22;4989713;28;20214;-82
2022/03/27 07:35:31;;;;;;;20.70;15.00;;;;;;;11.31;74.07;100508.09;4987985;28;20600;-82
2022/03/27 07:38:00;;;;;;;19.98;14.40;;;;;;;11.45;73.72;100500.22;4989396;28;20747;-82
2022/03/27 07:40:27;;;;;;;20.10;14.18;;;;;;;11.63;72.74;100508.38;4988393;28;20187;-82
2022/03/27 07:42:55;;;;;;;23.65;15.48;;;;;;;11.76;71.90;100508.66;4988989;28;20210;-82
2022/03/27 07:45:25;;;;;;;20.45;13.65;;;;;;;11.91;71.01;100507.06;4981060;28;20745;-82
2022/03/27 07:47:53;;;;;;;19.98;14.55;;;;;;;12.09;70.07;100511.56;4982076;28;20188;-82
2022/03/27 07:50:22;;;;;;;19.13;13.52;;;;;;;12.08;69.88;100515.22;4988587;28;20192;-82
2022/03/27 07:52:49;;;;;;;20.15;14.55;;;;;;;12.33;67.94;100509.44;4981408;28;20199;-82
2022/03/27 07:55:20;;;;;;;22.20;15.07;;;;;;;12.52;66.49;100503.97;4986323;28;20200;-82
2022/03/27 07:57:46;;;;;;;22.63;16.42;;;;;;;12.57;66.20;100501.88;4987276;28;20524;-81
2022/03/27 08:00:18;;;;;;;22.05;13.95;;;;;;;12.63;65.45;100504.28;4978016;28;20573;-82
2022/03/27 08:02:46;;;;;;;23.67;17.10;;;;;;;12.80;65.07;100508.81;4996539;28;20278;-88
2022/03/27 08:05:14;;;;;;;25.45;18.85;;;;;;;12.83;64.55;100507.78;4997675;28;20243;-83
2022/03/27 08:07:42;;;;;;;25.33;16.77;;;;;;;12.78;64.17;100501.75;4990037;28;20228;-85
2022/03/27 08:10:10;;;;;;;20.48;15.32;;;;;;;12.97;63.04;100502.50;4981498;28;20214;-79
2022/03/27 08:12:37;;;;;;;24.33;17.52;;;;;;;12.99;63.00;100503.28;5004586;28;20246;-80
2022/03/27 08:15:05;;;;;;;25.48;16.45;;;;;;;13.14;62.23;100501.59;5007127;28;20270;-81
2022/03/27 08:17:32;;;;;;;21.90;13.88;;;;;;;13.40;60.83;100500.19;4996304;28;20203;-82
2022/03/27 08:19:58;;;;;;;18.60;13.50;;;;;;;13.43;60.32;100500.03;4977261;28;20223;-81
2022/03/27 08:22:25;;;;;;;18.35;13.40;;;;;;;13.51;59.47;100497.75;4977215;28;20189;-81
2022/03/27 08:24:52;;;;;;;24.30;17.50;;;;;;;13.60;60.04;100500.91;4990499;28;20207;-84
2022/03/27 08:27:18;;;;;;;22.35;13.80;;;;;;;13.64;58.31;100500.66;4988615;28;20643;-81
2022/03/27 08:29:46;;;;;;;21.05;13.32;;;;;;;13.66;58.77;100500.56;4996862;28;20589;-83
2022/03/27 08:32:14;;;;;;;18.48;13.38;;;;;;;13.58;58.56;100501.00;4981681;28;20202;-83
2022/03/27 08:34:43;;;;;;;20.83;14.70;;;;;;;13.87;57.35;100495.75;4976592;28;20219;-85
2022/03/27 08:37:12;;;;;;;21.40;13.07;;;;;;;13.86;56.68;100494.00;4975250;28;20296;-85
2022/03/27 08:39:39;;;;;;;20.27;13.35;;;;;;;14.02;56.26;100499.41;4983649;28;20935;-83
2022/03/27 08:42:07;;;;;;;18.50;13.80;;;;;;;14.05;55.74;100493.81;4996312;28;20193;-81
2022/03/27 08:44:37;;;;;;;19.80;13.43;;;;;;;14.36;54.18;100499.19;4998411;28;20534;-84
2022/03/27 08:47:11;;;;;;;19.02;13.05;;;;;;;14.36;53.80;100503.72;4979162;28;20279;-80
2022/03/27 08:49:42;;;;;;;19.02;12.90;;;;;;;14.55;53.06;100498.97;4995002;28;20201;-81
2022/03/27 08:52:24;;;;;;;21.00;12.82;;;;;;;14.61;52.66;100503.16;4984540;28;20190;-82
2022/03/27 08:55:00;;;;;;;19.70;12.88;;;;;;;14.56;52.83;100497.13;4978288;28;20221;-80
2022/03/27 08:57:45;;;;;;;17.83;12.27;;;;;;;14.88;52.05;100499.69;4996148;28;20198;-81
2022/03/27 09:00:13;;;;;;;18.27;12.43;;;;;;;14.96;51.29;100498.25;4997524;28;20633;-81
2022/03/27 09:02:42;;;;;;;20.13;12.63;;;;;;;15.11;50.54;100488.31;4980181;28;20314;-83
2022/03/27 09:05:09;;;;;;;17.65;12.68;;;;;;;15.25;50.12;100500.13;4998041;28;20248;-84
2022/03/27 09:07:36;;;;;;;17.95;12.55;;;;;;;15.30;50.36;100498.00;4996121;28;20226;-81
2022/03/27 09:10:06;;;;;;;20.63;13.07;;;;;;;15.54;49.51;100495.56;4985766;28;20684;-81
2022/03/27 09:12:34;;;;;;;17.65;12.45;;;;;;;15.49;48.74;100494.97;4995248;28;20194;-82
2022/03/27 09:15:01;;;;;;;21.77;13.68;;;;;;;15.76;48.72;100497.75;4998901;28;20281;-81
2022/03/27 09:17:28;;;;;;;16.05;12.02;;;;;;;15.74;47.61;100503.31;5002705;28;20635;-81
2022/03/27 09:19:56;;;;;;;20.63;13.13;;;;;;;15.75;47.51;100496.91;5011638;28;20226;-82
2022/03/27 09:22:29;;;;;;;19.88;12.82;;;;;;;16.13;47.24;100493.50;5004440;28;20286;-81
2022/03/27 09:24:58;;;;;;;17.80;12.00;;;;;;;16.26;46.31;100496.25;4997769;28;20221;-83
2022/03/27 09:27:30;;;;;;;16.08;11.73;;;;;;;16.40;45.10;100496.19;4998313;28;20187;-87
2022/03/27 09:29:59;;;;;;;13.48;10.15;;;;;;;16.56;43.90;100500.59;4995787;28;20187;-84
2022/03/27 09:32:26;;;;;;;14.95;10.15;;;;;;;16.63;43.48;100489.16;4996494;28;20208;-81
2022/03/27 09:35:03;;;;;;;18.15;12.27;;;;;;;16.65;43.78;100491.78;4999934;28;20196;-80
2022/03/27 09:37:34;;;;;;;19.05;12.07;;;;;;;16.90;43.76;100492.81;4992590;28;20233;-81
2022/03/27 09:40:02;;;;;;;17.55;12.35;;;;;;;17.23;42.95;100486.81;4996721;28;20191;-79
2022/03/27 09:42:30;;;;;;;16.90;11.05;;;;;;;17.06;42.74;100488.03;4995125;28;20203;-85
2022/03/27 09:45:17;;;;;;;16.00;10.80;;;;;;;17.13;42.81;100483.91;4997857;28;20211;-89
2022/03/27 09:47:45;;;;;;;19.33;11.48;;;;;;;16.90;43.15;100481.94;4996696;28;20283;-83
2022/03/27 09:50:32;;;;;;;16.05;11.45;;;;;;;17.13;42.79;100475.72;4993908;28;20238;-85
2022/03/27 09:53:25;;;;;;;14.45;10.90;;;;;;;17.29;42.43;100479.09;4993819;28;20278;-82
2022/03/27 09:56:12;;;;;;;17.55;11.50;;;;;;;17.24;42.29;100477.69;4994979;28;20214;-83
2022/03/27 09:58:40;;;;;;;16.17;10.38;;;;;;;17.32;42.28;100472.56;4994919;28;20198;-83
2022/03/27 10:01:15;;;;;;;19.23;10.73;;;;;;;17.30;41.99;100472.69;4993284;28;20314;-82
2022/03/27 10:03:58;;;;;;;15.98;11.35;;;;;;;17.32;40.94;100469.84;4994763;28;20194;-82
2022/03/27 10:06:30;;;;;;;16.77;10.70;;;;;;;17.37;41.00;100469.50;4994900;28;20563;-82
2022/03/27 10:08:57;;;;;;;19.45;10.57;;;;;;;17.52;41.02;100473.81;4995255;28;20207;-82
2022/03/27 10:11:25;;;;;;;19.55;11.88;;;;;;;17.73;41.04;100452.31;4994136;28;20187;-84
2022/03/27 10:13:53;;;;;;;15.50;10.02;;;;;;;18.00;40.29;100448.50;4989109;28;20192;-82
2022/03/27 10:16:24;;;;;;;14.50;11.65;;;;;;;17.75;39.94;100444.00;4976634;28;20583;-81
2022/03/27 10:18:54;;;;;;;13.10;10.25;;;;;;;18.07;39.74;100449.81;4975975;28;20196;-82
2022/03/27 10:21:24;;;;;;;12.98;10.10;;;;;;;18.47;38.98;100444.00;4975829;28;20196;-82
2022/03/27 10:23:57;;;;;;;14.70;10.82;;;;;;;17.98;40.20;100450.50;5005655;28;20226;-84
2022/03/27 10:26:25;;;;;;;15.35;10.00;;;;;;;17.93;40.08;100445.38;4999870;28;20319;-79
2022/03/27 10:28:55;;;;;;;15.05;10.23;;;;;;;18.26;39.59;100433.78;5009388;28;20546;-82
2022/03/27 10:31:23;;;;;;;15.52;10.63;;;;;;;18.31;39.17;100436.16;4997250;28;20191;-82
2022/03/27 10:33:53;;;;;;;15.50;10.25;;;;;;;18.59;39.27;100432.16;5001232;28;20213;-82
2022/03/27 10:36:31;;;;;;;17.50;9.93;;;;;;;18.57;38.03;100430.53;4996352;28;20191;-83
2022/03/27 10:39:08;;;;;;;13.82;9.13;;;;;;;18.46;38.40;100429.50;4994972;28;20194;-78
2022/03/27 10:41:42;;;;;;;14.50;10.65;;;;;;;18.77;37.94;100427.13;4991641;28;20215;-77
2022/03/27 10:44:13;;;;;;;15.38;11.48;;;;;;;18.81;38.34;100428.59;4985444;28;20216;-80
2022/03/27 10:46:40;;;;;;;18.45;10.85;;;;;;;18.96;37.93;100421.94;5004450;28;20212;-81
2022/03/27 10:49:11;;;;;;;13.82;9.45;;;;;;;19.17;36.30;100427.53;5008413;28;20269;-81
2022/03/27 10:51:40;;;;;;;12.35;9.40;;;;;;;19.19;35.99;100415.63;5004811;28;20243;-81
2022/03/27 10:54:10;;;;;;;13.32;8.77;;;;;;;19.15;35.13;100415.00;5006160;28;20205;-81
2022/03/27 10:56:39;;;;;;;16.48;7.93;;;;;;;18.96;35.63;100413.75;4997911;28;20206;-82
2022/03/27 10:59:11;;;;;;;12.43;8.30;;;;;;;19.02;35.08;100414.28;4997650;28;20212;-82
2022/03/27 11:01:40;;;;;;;13.38;8.30;;;;;;;19.13;34.79;100417.84;4997282;28;20322;-81
2022/03/27 11:04:09;;;;;;;11.63;8.23;;;;;;;19.02;34.79;100417.84;5004420;28;20197;-81
2022/03/27 11:06:37;;;;;;;13.13;8.75;;;;;;;18.98;35.24;100413.63;5004105;28;20270;-81
2022/03/27 11:09:06;;;;;;;15.85;9.32;;;;;;;19.13;34.70;100403.31;4998796;28;20206;-82
2022/03/27 11:11:54;;;;;;;10.63;7.55;;;;;;;19.26;33.38;100401.31;4999517;28;20603;-82
2022/03/27 11:15:02;;;;;;;11.80;7.72;;;;;;;19.14;33.94;100391.44;4996472;28;20221;-81
2022/03/27 11:18:09;;;;;;;9.90;7.88;;;;;;;19.14;33.67;100392.28;4996470;28;20197;-81
2022/03/27 11:20:57;;;;;;;14.57;7.75;;;;;;;19.46;33.40;100383.31;4950258;29;20209;-82
2022/03/27 11:23:37;;;;;;;12.68;7.93;;;;;;;19.54;33.12;100372.63;4947002;29;20206;-82
2022/03/27 11:26:06;;;;;;;13.60;7.35;;;;;;;19.65;33.07;100384.50;4951205;29;20286;-82